• Join FlightAware (Why Join?)
  • Login
  • US Flag 
11:46AM EDT


 

Airport Tracker/Info


-or-


 

Live Flight TrackerFlight Track Log ✈ SWA378 ✈ 21-May-2013 ✈ KATL - KORF

Flight Track Log - Related Links

Times and Time Zones

All times are in EDT time to prevent confusion due to time zone crossing. See the SWA378 flight status page for this flight to view local times or setup timezone preferences in your user account.

Time Position Orientation Groundspeed Altitude Reporting Facility
EDT Latitude Longitude Course Direction KTS MPH feet Rate Location/Type
06:48PM 33.6328 -84.4778 235° Southwest 435 501 2,700  Level Atlanta Center
06:49PM 33.6000 -84.5333 235° Southwest 215 247 4,900 2,400 Climbing Atlanta TRACON
06:50PM 33.5500 -84.5833 220° Southwest 279 321 7,600 3,000 Climbing Atlanta TRACON
06:51PM 33.4833 -84.5667 168° South 300 345 10,900 2,580 Climbing Atlanta TRACON
06:53PM 33.4556 -84.3625 99° East 371 427 15,400 2,520 Climbing Atlanta Center
06:54PM 33.4728 -84.2381 81° East 371 427 18,500 3,000 Climbing Atlanta Center
06:55PM 33.5186 -84.1211 65° Northeast 372 428 21,400 2,220 Climbing Atlanta Center
06:56PM 33.5708 -84.0039 62° Northeast 389 448 23,000 780 Climbing Atlanta Center
06:57PM 33.6125 -83.8742 69° East 405 466 23,000 300 Level Atlanta Center
06:58PM 33.6394 -83.7444 76° East 405 466 23,600 1,320 Climbing Atlanta Center
06:59PM 33.6744 -83.6094 73° East 405 466 25,700 2,100 Climbing Atlanta Center
07:00PM 33.7261 -83.4769 65° Northeast 426 490 27,800 1,140 Climbing Atlanta Center
07:01PM 33.7858 -83.3314 64° Northeast 426 490 28,000 360 Climbing Atlanta Center
07:02PM 33.8414 -83.1933 64° Northeast 438 504 28,600 480 Climbing Atlanta Center
07:03PM 33.8967 -83.0578 64° Northeast 446 513 29,000 540 Climbing Atlanta Center
07:04PM 33.9539 -82.9144 64° Northeast 457 526 29,700 1,200 Climbing Atlanta Center
07:05PM 34.0131 -82.7758 63° Northeast 457 526 31,500 1,980 Climbing Atlanta Center
07:06PM 34.0847 -82.6442 57° Northeast 469 540 33,700 3,720 Climbing Atlanta Center
07:07PM 34.1522 -82.5328 54° Northeast 463 533 39,000 1,680 Climbing Atlanta Center
07:08PM 34.2217 -82.4083 56° Northeast 452 520 37,100 -180 Descending Atlanta Center
07:09PM 34.2828 -82.2917 58° Northeast 433 498 38,700 900 Climbing Atlanta Center
07:10PM 34.3436 -82.1669 59° Northeast 426 490 39,000 120 Climbing Atlanta Center
07:11PM 34.4019 -82.0372 61° Northeast 426 490 39,000  Level Atlanta Center
07:12PM 34.4644 -81.9100 59° Northeast 426 490 39,000  Level Atlanta Center
07:13PM 34.5247 -81.7797 61° Northeast 426 490 39,000  Level Atlanta Center
07:14PM 34.5869 -81.6444 61° Northeast 439 505 39,000  Level Atlanta Center
07:15PM 34.6553 -81.5086 59° Northeast 438 504 39,000  Level Atlanta Center
07:16PM 34.7169 -81.3753 61° Northeast 438 504 39,000  Level Atlanta Center
07:17PM 34.7686 -81.2522 63° Northeast 449 517 39,000  Level Atlanta Center
07:18PM 34.8303 -81.1186 61° Northeast 449 517 39,000  Level Atlanta Center
07:19PM 34.8917 -80.9900 60° Northeast 449 517 39,000  Level Atlanta Center
07:20PM 34.9508 -80.8558 62° Northeast 448 516 39,000 -360 Level Atlanta Center
07:22PM 35.0936 -80.5444 61° Northeast 453 521 37,900 -660 Descending Washington Center
07:23PM 35.1558 -80.4036 62° Northeast 460 529 37,000 -480 Descending Washington Center
07:25PM 35.2153 -80.2725 61° Northeast 454 522 37,000  Level Washington Center
07:25PM 35.2747 -80.1358 62° Northeast 449 517 37,000  Level Washington Center
07:26PM 35.3358 -80.0069 60° Northeast 442 509 37,000  Level Washington Center
07:27PM 35.3969 -79.8753 60° Northeast 436 502 37,000  Level Washington Center
07:29PM 35.4539 -79.7431 62° Northeast 436 502 37,000 -360 Level Washington Center
07:29PM 35.5128 -79.6111 61° Northeast 436 502 36,300 -900 Descending Washington Center
07:30PM 35.5733 -79.4761 61° Northeast 436 502 35,300 -1,020 Descending Washington Center
07:31PM 35.6136 -79.3300 71° East 443 510 34,300 -1,020 Descending Washington Center
07:33PM 35.6472 -79.1833 74° East 448 516 33,300 -1,020 Descending Washington Center
07:34PM 35.6808 -79.0389 74° East 437 503 32,300 -1,020 Descending Washington Center
07:34PM 35.7139 -78.8972 74° East 430 495 31,300 -1,080 Descending Washington Center
07:35PM 35.7492 -78.7528 73° East 430 495 30,200 -1,080 Descending Washington Center
07:36PM 35.7800 -78.6106 75° East 430 495 29,200 -1,020 Descending Washington Center
07:38PM 35.8106 -78.4733 75° East 425 489 28,200 -1,020 Descending Washington Center
07:39PM 35.8408 -78.3336 75° East 425 489 27,200 -660 Descending Washington Center
07:39PM 35.8686 -78.2117 74° East 419 482 27,000 -540 Descending Washington Center
07:41PM 35.8989 -78.0689 75° East 419 482 26,200 -960 Descending Washington Center
07:42PM 35.9308 -77.9264 74° East 419 482 25,100 -1,080 Descending Washington Center
07:43PM 35.9606 -77.7886 75° East 414 476 24,100 -1,020 Descending Washington Center
07:43PM 36.0006 -77.6561 70° East 414 476 23,100 -1,200 Descending Washington Center
07:44PM 36.0567 -77.5394 59° Northeast 402 463 21,800 -1,080 Descending Washington Center
07:45PM 36.1128 -77.4278 58° Northeast 386 444 21,000 -420 Descending Washington Center
07:47PM 36.1644 -77.3133 61° Northeast 381 438 21,000  Level Washington Center
07:47PM 36.2183 -77.1986 60° Northeast 381 438 21,000 -900 Level Washington Center
07:48PM 36.2742 -77.0836 59° Northeast 381 438 19,300 -1,980 Descending Washington Center
07:49PM 36.3169 -76.9944 59° Northeast 380 437 17,700 -1,980 Descending Washington Center
07:50PM 36.3256 -76.9714 65° Northeast 375 432 17,300 -1,860 Descending Washington Center
07:50PM 36.3789 -76.8639 58° Northeast 370 426 15,300 -2,040 Descending Washington Center
07:51PM 36.4300 -76.7589 59° Northeast 365 420 13,300 -2,040 Descending Washington Center
07:52PM 36.4853 -76.6564 56° Northeast 353 406 11,200 -1,260 Descending Washington Center
07:54PM 36.5403 -76.5458 58° Northeast 317 365 10,700 -840 Descending Washington Center
07:55PM 36.5764 -76.4636 61° Northeast 294 338 9,600 -1,440 Descending Washington Center
07:56PM 36.6228 -76.3786 56° Northeast 295 339 8,000 -1,560 Descending Washington Center
07:56PM 36.6858 -76.3300 32° Northeast 288 331 6,600 -1,560 Descending Washington Center
07:57PM 36.7611 -76.2739 31° Northeast 279 321 5,000 -1,620 Descending Washington Center
07:58PM 36.7758 -76.2636 29° Northeast 288 331 4,600 -1,320 Descending Washington Center
07:58PM 36.8261 -76.2172 36° Northeast 279 321 3,700 -1,020 Descending Washington Center
07:59PM 36.8408 -76.2069 29° Northeast 281 323 3,600 -900 Descending Washington Center
08:00PM 36.8975 -76.1478 40° Northeast 228 262 2,600 -1,020 Descending Washington Center